Time;durP1;ratioP1;P1;durP2;ratioP2;P2;SDS_P1;SDS_P2;PMS_P1;PMS_P2;Temp;Humidity;BMP_temperature;BMP_pressure;BME280_temperature;BME280_humidity;BME280_pressure;Samples;Min_cycle;Max_cycle;Signal;HPM_P1;HPM_P2
2021/01/01 00:02:17;;;;;;;131.98;67.72;;;3.40;99.90;;;;;;5072776;28;20027;-81
2021/01/01 00:04:43;;;;;;;125.70;60.63;;;3.40;99.90;;;;;;5072830;28;20039;-81
2021/01/01 00:07:09;;;;;;;103.07;52.40;;;3.40;99.90;;;;;;5080526;28;20055;-81
2021/01/01 00:09:34;;;;;;;81.15;41.83;;;3.40;99.90;;;;;;5064131;28;20050;-81
2021/01/01 00:12:00;;;;;;;91.40;42.92;;;3.50;99.90;;;;;;5090785;28;20035;-82
2021/01/01 00:14:26;;;;;;;85.22;42.92;;;3.50;99.90;;;;;;5090734;28;20469;-81
2021/01/01 00:16:51;;;;;;;92.90;44.60;;;3.50;99.90;;;;;;5087512;28;20032;-81
2021/01/01 00:19:17;;;;;;;89.35;43.35;;;3.50;99.90;;;;;;5052266;28;20047;-81
2021/01/01 00:21:42;;;;;;;81.95;41.85;;;3.40;99.90;;;;;;5053684;28;20439;-81
2021/01/01 00:24:08;;;;;;;94.63;43.30;;;3.40;99.90;;;;;;5071096;28;20040;-81
2021/01/01 00:26:35;;;;;;;87.65;44.33;;;3.40;99.90;;;;;;5052643;28;20044;-81
2021/01/01 00:29:01;;;;;;;95.22;46.40;;;3.40;99.90;;;;;;5075009;28;20029;-82
2021/01/01 00:31:27;;;;;;;94.38;47.40;;;3.40;99.90;;;;;;5072751;28;20161;-81
2021/01/01 00:33:53;;;;;;;106.95;46.83;;;3.40;99.90;;;;;;5062906;28;20680;-82
2021/01/01 00:36:22;;;;;;;100.15;51.33;;;3.40;99.90;;;;;;5062363;28;20107;-81
2021/01/01 00:38:51;;;;;;;99.25;51.85;;;3.30;99.90;;;;;;5072753;28;20041;-81
2021/01/01 00:41:26;;;;;;;108.30;50.42;;;3.30;99.90;;;;;;5070483;28;20043;-82
2021/01/01 00:43:54;;;;;;;96.78;46.92;;;3.40;99.90;;;;;;5062368;28;20396;-81
2021/01/01 00:46:24;;;;;;;97.10;45.47;;;3.30;99.90;;;;;;5061692;28;20040;-81
2021/01/01 00:48:50;;;;;;;102.82;49.28;;;3.30;99.90;;;;;;5075759;28;20035;-80
2021/01/01 00:51:27;;;;;;;86.13;45.50;;;3.40;99.90;;;;;;5063060;28;20032;-80
2021/01/01 00:53:53;;;;;;;88.75;42.70;;;3.40;99.90;;;;;;5070420;28;20056;-81
2021/01/01 00:56:23;;;;;;;89.47;44.80;;;3.40;99.90;;;;;;5052351;28;20063;-80
2021/01/01 00:58:50;;;;;;;85.43;40.90;;;3.40;99.90;;;;;;5052465;28;20025;-80
2021/01/01 01:01:17;;;;;;;76.68;38.05;;;3.30;99.90;;;;;;5072058;28;20108;-80
2021/01/01 01:03:42;;;;;;;77.78;37.00;;;3.30;99.90;;;;;;5059240;28;20027;-80
2021/01/01 01:06:08;;;;;;;78.65;38.63;;;3.30;99.90;;;;;;5052265;28;20486;-81
2021/01/01 01:08:34;;;;;;;76.75;37.22;;;3.40;99.90;;;;;;5058331;28;20046;-80
2021/01/01 01:10:59;;;;;;;72.03;35.45;;;3.50;99.90;;;;;;5054899;28;20047;-80
2021/01/01 01:13:25;;;;;;;76.30;37.22;;;3.50;99.90;;;;;;5078056;28;20028;-80
2021/01/01 01:15:51;;;;;;;67.80;33.95;;;3.40;99.90;;;;;;5052416;28;20132;-81
2021/01/01 01:18:16;;;;;;;68.25;34.63;;;3.40;99.90;;;;;;5052231;28;20051;-80
2021/01/01 01:20:42;;;;;;;73.78;34.17;;;3.50;99.90;;;;;;5052571;28;20037;-80
2021/01/01 01:23:08;;;;;;;68.93;32.22;;;3.40;99.90;;;;;;5052548;28;20028;-81
2021/01/01 01:25:33;;;;;;;75.55;34.38;;;3.30;99.90;;;;;;5052157;28;20036;-81
2021/01/01 01:27:59;;;;;;;66.38;32.38;;;3.40;99.90;;;;;;5058890;28;20036;-81
2021/01/01 01:30:24;;;;;;;60.28;29.40;;;3.30;99.90;;;;;;5058904;28;20492;-81
2021/01/01 01:32:50;;;;;;;64.35;31.27;;;3.20;99.90;;;;;;5069545;28;20029;-80
2021/01/01 01:35:16;;;;;;;70.13;33.58;;;3.30;99.90;;;;;;5052036;28;20090;-80
2021/01/01 01:37:41;;;;;;;70.82;32.10;;;3.30;99.90;;;;;;5043903;28;20024;-80
2021/01/01 01:40:08;;;;;;;65.88;32.50;;;3.30;99.90;;;;;;5051722;28;20465;-79
2021/01/01 01:42:33;;;;;;;68.10;32.67;;;3.20;99.90;;;;;;5051699;28;20032;-80
2021/01/01 01:44:59;;;;;;;61.72;31.58;;;3.30;99.90;;;;;;5047629;28;20375;-80
2021/01/01 01:47:25;;;;;;;67.03;31.80;;;3.30;99.90;;;;;;5051392;28;20039;-80
2021/01/01 01:49:52;;;;;;;69.05;32.50;;;3.30;99.90;;;;;;5049154;28;20031;-80
2021/01/01 01:52:18;;;;;;;66.32;32.22;;;3.30;99.90;;;;;;5065296;28;20029;-80
2021/01/01 01:54:45;;;;;;;69.78;33.45;;;3.40;99.90;;;;;;5047594;28;20037;-80
2021/01/01 01:57:11;;;;;;;65.85;33.78;;;3.30;99.90;;;;;;5054741;28;20028;-80
2021/01/01 01:59:38;;;;;;;70.70;33.50;;;3.30;99.90;;;;;;5048708;28;20456;-81
2021/01/01 02:02:04;;;;;;;82.22;35.75;;;3.20;99.90;;;;;;5060347;28;20030;-80
2021/01/01 02:04:30;;;;;;;69.43;35.20;;;3.20;99.90;;;;;;5069010;28;20469;-80
2021/01/01 02:06:56;;;;;;;73.85;33.90;;;3.20;99.90;;;;;;5056590;28;20045;-80
2021/01/01 02:09:22;;;;;;;74.57;36.40;;;3.30;99.90;;;;;;5045208;28;20032;-81
2021/01/01 02:11:51;;;;;;;89.55;40.58;;;3.40;99.90;;;;;;5049280;28;20405;-81
2021/01/01 02:14:17;;;;;;;74.68;37.67;;;3.30;99.90;;;;;;5046219;28;20060;-82
2021/01/01 02:16:43;;;;;;;82.30;41.55;;;3.30;99.90;;;;;;5047858;28;20079;-82
2021/01/01 02:19:12;;;;;;;77.20;36.20;;;3.30;99.90;;;;;;5057051;28;20028;-81
2021/01/01 02:21:40;;;;;;;86.57;40.13;;;3.30;99.90;;;;;;5062803;28;20039;-82
2021/01/01 02:24:07;;;;;;;94.82;42.97;;;3.40;99.90;;;;;;5047715;28;20075;-81
2021/01/01 02:26:32;;;;;;;93.65;41.55;;;3.30;99.90;;;;;;5057248;28;20436;-82
2021/01/01 02:28:58;;;;;;;77.40;39.45;;;3.30;99.90;;;;;;5049551;28;20075;-81
2021/01/01 02:31:23;;;;;;;85.47;39.42;;;3.20;99.90;;;;;;5049301;28;20036;-82
2021/01/01 02:33:49;;;;;;;81.18;37.63;;;3.30;99.90;;;;;;5050330;28;20025;-82
2021/01/01 02:36:14;;;;;;;74.95;34.92;;;3.30;99.90;;;;;;5047911;28;20024;-81
2021/01/01 02:38:40;;;;;;;65.30;31.85;;;3.40;99.90;;;;;;5048919;28;20025;-81
2021/01/01 02:41:06;;;;;;;70.22;33.17;;;3.40;99.90;;;;;;5047095;28;20082;-81
2021/01/01 02:43:32;;;;;;;67.63;32.10;;;3.30;99.90;;;;;;5055860;28;20052;-81
2021/01/01 02:45:57;;;;;;;66.90;31.95;;;3.30;99.90;;;;;;5070272;28;20063;-81
2021/01/01 02:48:24;;;;;;;66.85;30.92;;;3.30;99.90;;;;;;5051216;28;20035;-81
2021/01/01 02:50:51;;;;;;;79.20;32.63;;;3.40;99.90;;;;;;5070389;28;20191;-80
2021/01/01 02:53:16;;;;;;;73.72;31.20;;;3.50;99.90;;;;;;5078397;28;20048;-81
2021/01/01 02:55:42;;;;;;;63.80;31.80;;;3.50;99.90;;;;;;5051170;28;20078;-81
2021/01/01 02:58:08;;;;;;;64.43;33.22;;;3.40;99.90;;;;;;5050674;28;20492;-80
2021/01/01 03:00:36;;;;;;;72.60;33.08;;;3.50;99.90;;;;;;5066483;28;20028;-81
2021/01/01 03:03:02;;;;;;;64.13;31.67;;;3.40;99.90;;;;;;5052763;28;20391;-81
2021/01/01 03:05:27;;;;;;;65.47;31.50;;;3.50;99.90;;;;;;5068316;28;20033;-81
2021/01/01 03:07:53;;;;;;;59.75;29.70;;;3.40;99.90;;;;;;5064894;28;20043;-80
2021/01/01 03:10:19;;;;;;;67.18;32.67;;;3.40;99.90;;;;;;5057571;28;20464;-80
2021/01/01 03:12:45;;;;;;;64.85;30.83;;;3.30;99.90;;;;;;5054536;28;20503;-81
2021/01/01 03:15:11;;;;;;;68.22;32.35;;;3.40;99.90;;;;;;5054414;28;20032;-80
2021/01/01 03:17:36;;;;;;;66.68;30.83;;;3.40;99.90;;;;;;5054363;28;20033;-80
2021/01/01 03:20:04;;;;;;;72.90;31.90;;;3.40;99.90;;;;;;5054845;28;20130;-81
2021/01/01 03:22:30;;;;;;;79.70;33.67;;;3.40;99.90;;;;;;5055956;28;20028;-80
2021/01/01 03:24:55;;;;;;;74.20;32.28;;;3.40;99.90;;;;;;5061051;28;20035;-80
2021/01/01 03:27:21;;;;;;;68.82;34.38;;;3.30;99.90;;;;;;5071160;28;20131;-80
2021/01/01 03:29:46;;;;;;;69.75;34.80;;;3.40;99.90;;;;;;5073582;28;20028;-81
2021/01/01 03:32:12;;;;;;;82.97;34.42;;;3.40;99.90;;;;;;5071980;28;20027;-81
2021/01/01 03:34:37;;;;;;;71.72;35.92;;;3.40;99.90;;;;;;5054531;28;20025;-80
2021/01/01 03:37:03;;;;;;;76.38;35.78;;;3.30;99.90;;;;;;5054398;28;20016;-80
2021/01/01 03:39:29;;;;;;;83.38;38.80;;;3.30;99.90;;;;;;5071112;28;20025;-80
2021/01/01 03:41:54;;;;;;;114.25;49.58;;;3.30;99.90;;;;;;5054257;28;20362;-81
2021/01/01 03:44:20;;;;;;;114.13;46.60;;;3.30;99.90;;;;;;5064636;28;20044;-80
2021/01/01 03:46:45;;;;;;;94.85;40.03;;;3.30;99.90;;;;;;5073822;28;20036;-80
2021/01/01 03:49:11;;;;;;;88.40;37.28;;;3.30;99.90;;;;;;5073270;28;20029;-80
2021/01/01 03:51:36;;;;;;;73.35;35.28;;;3.30;99.90;;;;;;5053865;28;20032;-80
2021/01/01 03:54:02;;;;;;;75.07;35.38;;;3.30;99.90;;;;;;5056053;28;20111;-80
2021/01/01 03:56:28;;;;;;;78.70;34.80;;;3.30;99.90;;;;;;5066629;28;20032;-80
2021/01/01 03:58:53;;;;;;;68.38;34.10;;;3.30;99.90;;;;;;5058048;28;20111;-80
2021/01/01 04:01:19;;;;;;;70.55;34.05;;;3.30;99.90;;;;;;5053621;28;20024;-80
2021/01/01 04:03:44;;;;;;;77.35;35.08;;;3.30;99.90;;;;;;5070391;28;20069;-80
2021/01/01 04:06:10;;;;;;;70.07;32.78;;;3.30;99.90;;;;;;5073195;28;20043;-81
2021/01/01 04:08:36;;;;;;;74.43;34.38;;;3.40;99.90;;;;;;5056492;28;20142;-81
2021/01/01 04:11:02;;;;;;;80.20;33.67;;;3.40;99.90;;;;;;5053727;28;20029;-80
2021/01/01 04:13:28;;;;;;;68.57;32.55;;;3.50;99.90;;;;;;5053144;28;20074;-80
2021/01/01 04:15:53;;;;;;;69.72;34.85;;;3.40;99.90;;;;;;5069396;28;20040;-80
2021/01/01 04:18:19;;;;;;;68.88;34.47;;;3.40;99.90;;;;;;5079981;28;20035;-80
2021/01/01 04:20:44;;;;;;;72.63;36.97;;;3.40;99.90;;;;;;5053552;28;20397;-81
2021/01/01 04:23:10;;;;;;;73.95;35.40;;;3.40;99.90;;;;;;5060344;28;20123;-80
2021/01/01 04:25:36;;;;;;;72.07;33.67;;;3.30;99.90;;;;;;5054603;28;20028;-81
2021/01/01 04:28:02;;;;;;;80.10;36.67;;;3.30;99.90;;;;;;5058909;28;20043;-81
2021/01/01 04:30:27;;;;;;;74.78;35.00;;;3.40;99.90;;;;;;5048982;28;20381;-80
2021/01/01 04:32:53;;;;;;;67.15;33.45;;;3.40;99.90;;;;;;5055093;28;20374;-80
2021/01/01 04:35:19;;;;;;;82.97;33.95;;;3.40;99.90;;;;;;5059250;28;20029;-80
2021/01/01 04:37:44;;;;;;;77.20;34.22;;;3.30;99.90;;;;;;5052356;28;20086;-80
2021/01/01 04:40:10;;;;;;;71.55;34.97;;;3.40;99.90;;;;;;5053023;28;20021;-81
2021/01/01 04:42:36;;;;;;;80.97;33.22;;;3.50;99.90;;;;;;5053028;28;20077;-81
2021/01/01 04:45:06;;;;;;;73.30;32.08;;;3.30;99.90;;;;;;5049611;28;20441;-80
2021/01/01 04:47:32;;;;;;;70.50;31.92;;;3.50;99.90;;;;;;5049571;28;20029;-81
2021/01/01 04:50:02;;;;;;;74.28;34.70;;;3.50;99.90;;;;;;5054472;28;20028;-81
2021/01/01 04:52:32;;;;;;;80.03;35.45;;;3.40;99.90;;;;;;5058304;28;20025;-80
2021/01/01 04:55:01;;;;;;;70.22;34.05;;;3.50;99.90;;;;;;5067473;28;20485;-81
2021/01/01 04:57:28;;;;;;;77.60;34.40;;;3.50;99.90;;;;;;5066601;28;20025;-80
2021/01/01 04:59:53;;;;;;;65.85;31.75;;;3.50;99.90;;;;;;5049375;28;20021;-79
2021/01/01 05:02:19;;;;;;;77.85;35.00;;;3.40;99.90;;;;;;5048407;28;20032;-80
2021/01/01 05:04:48;;;;;;;76.78;35.03;;;3.40;99.90;;;;;;5063754;28;20107;-81
2021/01/01 05:07:20;;;;;;;73.60;34.67;;;3.40;99.90;;;;;;5063704;28;20040;-81
2021/01/01 05:09:47;;;;;;;74.05;32.25;;;3.50;99.90;;;;;;5048939;28;20381;-80
2021/01/01 05:12:14;;;;;;;79.88;33.90;;;3.50;99.90;;;;;;5049143;28;20027;-81
2021/01/01 05:14:40;;;;;;;72.72;33.28;;;3.50;99.90;;;;;;5066248;28;20823;-80
2021/01/01 05:17:06;;;;;;;79.65;34.58;;;3.50;99.90;;;;;;5043193;28;20031;-80
2021/01/01 05:19:41;;;;;;;75.88;34.92;;;3.50;99.90;;;;;;5050080;28;20035;-80
2021/01/01 05:22:08;;;;;;;70.15;33.05;;;3.40;99.90;;;;;;5048818;28;20115;-80
2021/01/01 05:24:43;;;;;;;78.47;34.33;;;3.40;99.90;;;;;;5048851;28;20032;-80
2021/01/01 05:27:17;;;;;;;75.60;33.45;;;3.30;99.90;;;;;;5040775;28;20468;-80
2021/01/01 05:29:51;;;;;;;79.22;35.70;;;3.30;99.90;;;;;;5057946;28;20021;-80
2021/01/01 05:32:22;;;;;;;83.68;36.90;;;3.30;99.90;;;;;;5053880;28;20036;-80
2021/01/01 05:34:48;;;;;;;86.35;37.88;;;3.30;99.90;;;;;;5048491;28;20393;-80
2021/01/01 05:37:29;;;;;;;79.45;37.20;;;3.30;99.90;;;;;;5049985;28;20025;-80
2021/01/01 05:40:11;;;;;;;82.13;37.90;;;3.30;99.90;;;;;;5049706;28;20029;-80
2021/01/01 05:42:39;;;;;;;80.78;36.13;;;3.30;99.90;;;;;;5047997;28;20033;-80
2021/01/01 05:45:16;;;;;;;74.22;34.90;;;3.30;99.90;;;;;;5048147;28;20045;-80
2021/01/01 05:47:42;;;;;;;69.97;34.20;;;3.40;99.90;;;;;;5049302;28;20048;-80
2021/01/01 05:50:08;;;;;;;77.47;36.03;;;3.40;99.90;;;;;;5049557;28;20025;-81
2021/01/01 05:52:34;;;;;;;75.95;34.40;;;3.40;99.90;;;;;;5048370;28;20374;-80
2021/01/01 05:55:02;;;;;;;73.50;34.38;;;3.30;99.90;;;;;;5059817;28;20027;-80
2021/01/01 05:57:38;;;;;;;80.35;33.40;;;3.30;99.90;;;;;;5050774;28;20025;-80
2021/01/01 06:00:06;;;;;;;67.60;31.38;;;3.30;99.90;;;;;;5048098;28;20017;-81
2021/01/01 06:02:39;;;;;;;78.85;34.90;;;3.30;99.90;;;;;;5048209;28;20060;-80
2021/01/01 06:05:10;;;;;;;71.68;33.53;;;3.40;99.90;;;;;;5066477;28;20052;-80
2021/01/01 06:07:41;;;;;;;80.20;34.67;;;3.30;99.90;;;;;;5061339;28;20063;-80
2021/01/01 06:10:09;;;;;;;72.93;34.72;;;3.30;99.90;;;;;;5050006;28;20021;-80
2021/01/01 06:12:37;;;;;;;79.93;35.75;;;3.30;99.90;;;;;;5063109;28;20041;-81
2021/01/01 06:15:05;;;;;;;78.93;36.10;;;3.40;99.90;;;;;;5050043;28;20029;-80
2021/01/01 06:17:49;;;;;;;75.15;34.42;;;3.40;99.90;;;;;;5041057;28;20420;-80
2021/01/01 06:20:22;;;;;;;72.22;35.90;;;3.40;99.90;;;;;;5048372;28;20033;-80
2021/01/01 06:23:06;;;;;;;75.13;35.22;;;3.50;99.90;;;;;;5047886;28;20051;-80
2021/01/01 06:25:34;;;;;;;77.22;34.80;;;3.40;99.90;;;;;;5048093;28;20025;-80
2021/01/01 06:27:59;;;;;;;76.47;35.13;;;3.40;99.90;;;;;;5047775;28;20040;-80
2021/01/01 06:30:26;;;;;;;78.85;35.42;;;3.30;99.90;;;;;;5049325;28;20017;-80
2021/01/01 06:32:52;;;;;;;77.97;37.08;;;3.40;99.90;;;;;;5046867;28;20029;-81
2021/01/01 06:35:20;;;;;;;76.47;35.58;;;3.40;99.90;;;;;;5057724;28;20085;-80
2021/01/01 06:37:54;;;;;;;82.18;34.47;;;3.30;99.90;;;;;;5055680;28;20377;-80
2021/01/01 06:40:20;;;;;;;73.03;34.55;;;3.40;99.90;;;;;;5052005;28;20082;-80
2021/01/01 06:42:53;;;;;;;83.07;35.55;;;3.40;99.90;;;;;;5052134;28;20029;-80
2021/01/01 06:45:41;;;;;;;81.00;35.80;;;3.40;99.90;;;;;;5058463;28;20053;-80
2021/01/01 06:48:10;;;;;;;72.72;33.85;;;3.40;99.90;;;;;;5049650;28;20108;-80
2021/01/01 06:50:38;;;;;;;78.82;36.88;;;3.30;99.90;;;;;;5054899;28;20420;-80
2021/01/01 06:53:08;;;;;;;82.45;35.30;;;3.30;99.90;;;;;;5056383;28;20024;-80
2021/01/01 06:55:37;;;;;;;82.88;37.90;;;3.20;99.90;;;;;;5055149;28;20447;-80
2021/01/01 06:58:04;;;;;;;82.03;37.65;;;3.20;99.90;;;;;;5047448;28;20090;-80
2021/01/01 07:00:45;;;;;;;79.10;38.97;;;3.10;99.90;;;;;;5054753;28;20070;-80
2021/01/01 07:03:26;;;;;;;83.10;38.15;;;3.10;99.90;;;;;;5064112;28;20020;-80
2021/01/01 07:05:52;;;;;;;81.43;38.45;;;3.10;99.90;;;;;;5072865;28;20421;-79
2021/01/01 07:08:40;;;;;;;79.55;37.42;;;3.00;99.90;;;;;;5072373;28;20036;-80
2021/01/01 07:11:29;;;;;;;90.22;38.63;;;2.90;99.90;;;;;;5072288;28;20039;-80
2021/01/01 07:14:15;;;;;;;85.43;40.60;;;2.80;99.90;;;;;;4981707;28;20047;-80
2021/01/01 07:16:43;;;;;;;90.28;37.97;;;2.80;99.90;;;;;;4988174;28;20037;-80
2021/01/01 07:19:09;;;;;;;88.93;39.33;;;2.80;99.90;;;;;;4971881;28;20035;-80
2021/01/01 07:21:35;;;;;;;85.40;38.85;;;2.80;99.90;;;;;;4972100;28;20041;-80
2021/01/01 07:24:01;;;;;;;86.43;39.80;;;2.70;99.90;;;;;;4971630;28;20113;-80
2021/01/01 07:26:27;;;;;;;85.60;37.40;;;2.70;99.90;;;;;;4971489;28;20050;-80
2021/01/01 07:28:55;;;;;;;91.20;40.72;;;2.70;99.90;;;;;;4971276;28;20038;-80
2021/01/01 07:31:21;;;;;;;82.80;36.78;;;2.70;99.90;;;;;;4970159;28;20273;-80
2021/01/01 07:33:48;;;;;;;75.00;35.42;;;2.80;99.90;;;;;;4971071;28;20121;-80
2021/01/01 07:36:14;;;;;;;82.07;36.28;;;2.80;99.90;;;;;;4971305;28;20608;-80
2021/01/01 07:38:45;;;;;;;81.82;38.03;;;2.80;99.90;;;;;;4970935;28;20081;-80
2021/01/01 07:41:11;;;;;;;87.28;37.58;;;2.80;99.90;;;;;;4980933;28;20109;-80
2021/01/01 07:43:38;;;;;;;87.53;35.50;;;2.80;99.90;;;;;;4976730;28;20049;-80
2021/01/01 07:46:08;;;;;;;89.57;36.25;;;2.90;99.90;;;;;;4987814;28;20068;-80
2021/01/01 07:48:35;;;;;;;90.17;37.00;;;2.90;99.90;;;;;;4977352;28;20492;-80
2021/01/01 07:51:06;;;;;;;83.97;37.38;;;2.90;99.90;;;;;;5023185;28;20119;-80
2021/01/01 07:53:32;;;;;;;73.93;34.90;;;3.00;99.90;;;;;;5068928;28;20039;-80
2021/01/01 07:56:00;;;;;;;75.25;34.67;;;3.00;99.90;;;;;;5053855;28;20033;-80
2021/01/01 07:58:28;;;;;;;87.38;33.63;;;3.00;99.90;;;;;;5058306;28;20116;-80
2021/01/01 08:01:01;;;;;;;77.72;33.03;;;3.10;99.90;;;;;;5055048;28;20024;-80
2021/01/01 08:03:27;;;;;;;75.20;34.20;;;3.10;99.90;;;;;;5053486;28;20020;-80
2021/01/01 08:05:53;;;;;;;74.43;35.53;;;3.10;99.90;;;;;;5053519;28;20481;-82
2021/01/01 08:08:23;;;;;;;71.85;34.47;;;3.10;99.90;;;;;;5056638;28;20032;-82
2021/01/01 08:10:53;;;;;;;72.63;32.22;;;3.10;99.90;;;;;;5055348;28;20060;-80
2021/01/01 08:13:25;;;;;;;68.57;32.20;;;3.20;99.90;;;;;;5080191;28;20024;-80
2021/01/01 08:15:54;;;;;;;71.50;32.05;;;3.20;99.90;;;;;;5053900;28;20856;-81
2021/01/01 08:18:25;;;;;;;78.82;34.63;;;3.20;99.90;;;;;;5053336;28;20557;-82
2021/01/01 08:20:59;;;;;;;71.35;32.33;;;3.30;99.90;;;;;;5053071;28;20119;-82
2021/01/01 08:23:26;;;;;;;66.32;32.78;;;3.30;99.90;;;;;;5067709;28;20035;-82
2021/01/01 08:25:53;;;;;;;77.90;33.83;;;3.30;99.90;;;;;;5089878;28;20028;-80
2021/01/01 08:28:21;;;;;;;72.78;34.78;;;3.40;99.90;;;;;;5060183;28;20127;-80
2021/01/01 08:30:58;;;;;;;74.07;33.97;;;3.30;99.90;;;;;;5071124;28;20078;-82
2021/01/01 08:33:30;;;;;;;70.05;33.90;;;3.40;99.90;;;;;;5052695;28;20039;-81
2021/01/01 08:36:08;;;;;;;75.55;33.72;;;3.40;99.90;;;;;;5070174;28;20119;-80
2021/01/01 08:38:35;;;;;;;75.72;33.47;;;3.40;99.90;;;;;;5059597;28;20852;-80
2021/01/01 08:41:01;;;;;;;79.05;32.35;;;3.40;99.90;;;;;;5052823;28;20073;-81
2021/01/01 08:43:28;;;;;;;70.10;33.08;;;3.40;99.90;;;;;;5052632;28;20041;-80
2021/01/01 08:45:54;;;;;;;70.80;31.42;;;3.50;99.90;;;;;;5065338;28;20142;-80
2021/01/01 08:48:20;;;;;;;73.22;32.30;;;3.50;99.90;;;;;;5065335;28;20115;-80
2021/01/01 08:50:52;;;;;;;63.53;29.75;;;3.60;99.90;;;;;;5053106;28;20334;-80
2021/01/01 08:53:19;;;;;;;72.07;32.00;;;3.60;99.90;;;;;;5052818;28;20488;-80
2021/01/01 08:55:59;;;;;;;66.40;31.60;;;3.60;99.90;;;;;;5072075;28;20031;-80
2021/01/01 08:58:25;;;;;;;72.75;32.80;;;3.70;99.90;;;;;;5059355;28;20033;-80
2021/01/01 09:00:50;;;;;;;69.57;32.80;;;3.70;99.90;;;;;;5075710;28;20027;-82
2021/01/01 09:03:17;;;;;;;65.78;30.40;;;3.60;99.90;;;;;;5082385;28;20442;-82
2021/01/01 09:05:44;;;;;;;74.18;32.20;;;3.70;99.90;;;;;;5069781;28;20028;-82
2021/01/01 09:08:20;;;;;;;67.95;31.73;;;3.70;99.90;;;;;;5053551;28;20151;-82
2021/01/01 09:10:47;;;;;;;71.47;31.13;;;3.80;99.90;;;;;;5059489;28;20031;-82
2021/01/01 09:13:21;;;;;;;68.65;31.17;;;3.80;99.90;;;;;;5069815;28;20059;-82
2021/01/01 09:16:00;;;;;;;65.72;30.90;;;3.70;99.90;;;;;;5071803;28;20120;-82
2021/01/01 09:18:26;;;;;;;75.78;30.70;;;3.80;99.90;;;;;;5077068;28;20020;-82
2021/01/01 09:21:07;;;;;;;64.85;31.55;;;3.90;99.90;;;;;;5089567;28;20041;-82
2021/01/01 09:23:33;;;;;;;65.63;30.88;;;3.90;99.90;;;;;;5058975;28;20042;-82
2021/01/01 09:25:58;;;;;;;67.97;30.90;;;4.00;99.90;;;;;;5072638;28;20103;-79
2021/01/01 09:28:24;;;;;;;68.45;32.38;;;4.10;99.90;;;;;;5059903;28;20040;-80
2021/01/01 09:30:50;;;;;;;70.90;31.50;;;4.10;99.90;;;;;;5067202;28;20042;-80
2021/01/01 09:33:15;;;;;;;68.07;31.02;;;4.10;99.90;;;;;;5057165;28;20063;-80
2021/01/01 09:35:41;;;;;;;73.47;33.45;;;4.10;99.90;;;;;;5070241;28;20032;-81
2021/01/01 09:38:07;;;;;;;75.85;34.67;;;4.20;99.90;;;;;;5051890;28;20431;-82
2021/01/01 09:40:36;;;;;;;75.50;35.63;;;4.10;99.90;;;;;;5051742;28;20089;-80
2021/01/01 09:43:03;;;;;;;78.28;35.88;;;4.20;99.90;;;;;;5050974;28;20032;-80
2021/01/01 09:45:29;;;;;;;80.82;34.72;;;4.10;99.90;;;;;;5053003;28;20404;-80
2021/01/01 09:47:55;;;;;;;80.20;35.25;;;4.20;99.90;;;;;;5051412;28;20143;-80
2021/01/01 09:50:21;;;;;;;71.20;34.88;;;4.30;99.90;;;;;;5052054;28;20111;-81
2021/01/01 09:52:47;;;;;;;71.13;35.60;;;4.30;99.90;;;;;;5054531;28;20516;-82
2021/01/01 09:55:12;;;;;;;79.22;35.00;;;4.20;99.90;;;;;;5051415;28;20059;-80
2021/01/01 09:57:38;;;;;;;75.15;37.05;;;4.30;99.90;;;;;;5051079;28;20032;-80
2021/01/01 10:00:12;;;;;;;69.78;33.75;;;4.30;99.90;;;;;;5054502;28;20024;-83
2021/01/01 10:02:38;;;;;;;72.63;34.78;;;4.30;99.90;;;;;;5058675;28;20029;-82
2021/01/01 10:05:05;;;;;;;80.35;35.67;;;4.40;99.90;;;;;;5059478;28;20173;-82
2021/01/01 10:07:31;;;;;;;82.32;35.58;;;4.40;99.90;;;;;;5065697;28;20032;-81
2021/01/01 10:09:57;;;;;;;75.88;36.22;;;4.60;99.90;;;;;;5054879;28;20033;-80
2021/01/01 10:12:25;;;;;;;75.45;35.72;;;4.50;99.90;;;;;;5051059;28;20034;-80
2021/01/01 10:14:54;;;;;;;79.38;34.47;;;4.60;99.90;;;;;;5062978;28;20016;-80
2021/01/01 10:17:23;;;;;;;77.45;33.65;;;4.60;99.90;;;;;;5068195;28;20500;-80
2021/01/01 10:19:49;;;;;;;68.55;33.78;;;4.70;99.90;;;;;;5051362;28;20047;-80
2021/01/01 10:22:16;;;;;;;71.72;34.58;;;4.90;99.90;;;;;;5068869;28;20539;-80
2021/01/01 10:24:44;;;;;;;74.97;34.58;;;4.80;99.90;;;;;;5051604;28;20513;-82
2021/01/01 10:27:11;;;;;;;64.45;32.03;;;5.00;99.90;;;;;;5070040;28;20111;-82
2021/01/01 10:29:36;;;;;;;74.38;34.35;;;5.10;99.90;;;;;;5065304;28;20138;-81
2021/01/01 10:32:03;;;;;;;70.75;36.53;;;4.80;99.90;;;;;;5069068;28;20113;-80
2021/01/01 10:34:29;;;;;;;77.60;35.25;;;4.70;99.90;;;;;;5044522;28;20020;-80
2021/01/01 10:36:55;;;;;;;75.32;34.50;;;4.70;99.90;;;;;;5050644;28;20033;-81
2021/01/01 10:39:20;;;;;;;70.63;32.70;;;4.80;99.90;;;;;;5056590;28;20028;-81
2021/01/01 10:41:49;;;;;;;69.22;34.53;;;4.70;99.90;;;;;;5068745;28;20387;-82
2021/01/01 10:44:16;;;;;;;67.28;34.03;;;4.70;99.90;;;;;;5068594;28;20047;-82
2021/01/01 10:46:42;;;;;;;66.13;33.25;;;4.70;99.90;;;;;;5050968;28;20045;-80
2021/01/01 10:49:08;;;;;;;68.22;32.65;;;4.80;99.90;;;;;;5050681;28;20107;-80
2021/01/01 10:51:35;;;;;;;81.10;35.53;;;4.70;99.90;;;;;;5050545;28;20036;-81
2021/01/01 10:54:00;;;;;;;68.90;35.25;;;4.60;99.90;;;;;;5063132;28;20020;-80
2021/01/01 10:56:28;;;;;;;67.38;32.97;;;4.60;99.90;;;;;;5083296;28;20035;-80
2021/01/01 10:58:53;;;;;;;67.28;33.88;;;4.80;99.90;;;;;;5054695;28;20024;-80
2021/01/01 11:01:24;;;;;;;69.82;33.03;;;4.70;99.90;;;;;;5053951;28;20074;-80
2021/01/01 11:03:50;;;;;;;67.05;32.95;;;4.80;99.90;;;;;;5050170;28;20040;-80
2021/01/01 11:06:16;;;;;;;72.88;34.13;;;4.90;99.90;;;;;;5055681;28;20051;-81
2021/01/01 11:08:43;;;;;;;69.10;32.42;;;4.80;99.90;;;;;;5060360;28;20051;-81
2021/01/01 11:11:11;;;;;;;60.60;30.33;;;4.90;99.90;;;;;;5051889;28;21462;-80
2021/01/01 11:13:41;;;;;;;75.68;33.20;;;5.10;99.90;;;;;;5051304;28;20082;-81
2021/01/01 12:25:03;;;;;;;65.25;31.25;;;6.60;99.90;;;;;;5004699;28;20033;-82
2021/01/01 12:27:30;;;;;;;70.97;31.90;;;6.60;99.90;;;;;;4998809;28;20034;-83
2021/01/01 12:29:56;;;;;;;63.00;31.55;;;6.50;99.90;;;;;;4993752;28;20136;-82
2021/01/01 12:32:22;;;;;;;64.95;31.05;;;6.40;99.90;;;;;;4974823;28;20040;-82
2021/01/01 12:34:48;;;;;;;69.85;33.10;;;6.20;99.90;;;;;;4988964;28;20109;-80
2021/01/01 12:37:15;;;;;;;75.25;33.63;;;6.00;99.90;;;;;;4978854;28;20109;-81
2021/01/01 12:39:40;;;;;;;65.53;33.15;;;6.00;99.90;;;;;;4988701;28;20534;-80
2021/01/01 12:42:08;;;;;;;69.10;32.33;;;5.80;99.90;;;;;;4977186;28;20211;-80
2021/01/01 12:44:34;;;;;;;66.85;33.67;;;5.70;99.90;;;;;;4985685;28;20045;-81
2021/01/01 12:47:00;;;;;;;69.97;32.58;;;5.80;99.90;;;;;;5052394;28;20044;-81
2021/01/01 12:49:25;;;;;;;69.63;33.47;;;5.80;99.90;;;;;;5059030;28;20021;-81
2021/01/01 12:51:51;;;;;;;62.05;30.98;;;5.80;99.90;;;;;;5052407;28;20101;-81
2021/01/01 12:54:17;;;;;;;66.50;32.85;;;5.90;99.90;;;;;;5043842;28;20021;-81
2021/01/01 12:56:43;;;;;;;68.85;33.13;;;6.00;99.90;;;;;;5059736;28;20039;-82
2021/01/01 12:59:08;;;;;;;61.55;32.22;;;6.10;99.90;;;;;;5062849;28;20096;-83
2021/01/01 13:01:34;;;;;;;66.85;33.25;;;6.00;99.90;;;;;;5071683;28;20032;-81
2021/01/01 13:04:00;;;;;;;73.53;33.10;;;6.10;99.90;;;;;;5073237;28;20485;-81
2021/01/01 13:06:27;;;;;;;69.63;34.78;;;6.20;99.90;;;;;;5061779;28;20050;-82
2021/01/01 13:08:57;;;;;;;63.30;31.65;;;6.00;99.90;;;;;;5070650;28;20050;-82
2021/01/01 13:11:26;;;;;;;69.20;33.65;;;6.20;99.90;;;;;;5054548;28;20373;-82
2021/01/01 13:13:52;;;;;;;67.93;34.80;;;6.40;99.90;;;;;;5059080;28;20038;-82
2021/01/01 13:16:22;;;;;;;68.40;33.50;;;6.40;99.90;;;;;;5054121;28;20038;-81
2021/01/01 13:18:49;;;;;;;67.38;33.90;;;6.60;99.90;;;;;;5057701;28;20428;-81
2021/01/01 13:21:33;;;;;;;70.13;34.53;;;6.60;99.90;;;;;;5059731;28;20028;-81
2021/01/01 13:24:00;;;;;;;63.95;32.63;;;6.60;99.90;;;;;;5051914;28;20032;-80
2021/01/01 13:26:27;;;;;;;67.47;31.90;;;6.70;99.90;;;;;;5052225;28;20032;-82
2021/01/01 13:28:53;;;;;;;64.88;33.42;;;6.80;99.90;;;;;;5069813;28;20032;-82
2021/01/01 13:31:21;;;;;;;65.45;34.20;;;6.70;99.90;;;;;;5051712;28;20111;-82
2021/01/01 13:33:48;;;;;;;68.40;34.88;;;6.60;99.90;;;;;;5069372;28;20024;-82
2021/01/01 13:36:16;;;;;;;79.38;34.25;;;6.60;99.90;;;;;;5060446;28;20028;-82
2021/01/01 13:38:42;;;;;;;72.10;36.45;;;6.50;99.90;;;;;;5066124;28;20402;-82
2021/01/01 13:41:09;;;;;;;70.35;36.10;;;6.30;99.90;;;;;;5051843;28;20493;-80
2021/01/01 13:43:39;;;;;;;84.78;38.20;;;6.30;99.90;;;;;;5056950;28;20159;-80
2021/01/01 13:46:05;;;;;;;76.88;38.83;;;6.30;99.90;;;;;;5055369;28;20035;-80
2021/01/01 13:48:32;;;;;;;80.10;40.20;;;6.20;99.90;;;;;;5058747;28;20043;-80